Time;durP1;ratioP1;P1;durP2;ratioP2;P2;SDS_P1;SDS_P2;PMS_P1;PMS_P2;Temp;Humidity;BMP_temperature;BMP_pressure;BME280_temperature;BME280_humidity;BME280_pressure;Samples;Min_cycle;Max_cycle;Signal;HPM_P1;HPM_P2
2022/05/12 00:01:04;;;;;;;3.05;1.55;;;;;;;17.86;51.88;98727.19;5124036;27;20049;-78
2022/05/12 00:03:31;;;;;;;5.85;1.90;;;;;;;17.85;52.46;98739.25;5127119;27;20046;-79
2022/05/12 00:05:57;;;;;;;2.03;1.67;;;;;;;17.83;51.31;98742.25;5131384;27;20490;-79
2022/05/12 00:08:26;;;;;;;7.40;1.70;;;;;;;17.66;54.30;98739.41;5124106;27;20479;-78
2022/05/12 00:10:53;;;;;;;1.30;1.20;;;;;;;17.37;56.14;98732.16;5124815;27;20055;-79
2022/05/12 00:13:22;;;;;;;3.22;2.10;;;;;;;17.29;57.27;98750.66;5116724;27;20051;-78
2022/05/12 00:15:49;;;;;;;2.80;1.60;;;;;;;16.98;56.25;98727.97;5125835;27;20047;-79
2022/05/12 00:18:17;;;;;;;1.83;1.33;;;;;;;17.02;57.24;98750.31;5131155;27;20088;-79
2022/05/12 00:20:43;;;;;;;3.35;1.77;;;;;;;16.84;56.93;98723.75;5120401;27;20475;-78
2022/05/12 00:23:12;;;;;;;1.98;1.60;;;;;;;16.82;57.52;98750.59;5130042;28;20077;-78
2022/05/12 00:25:40;;;;;;;3.03;1.80;;;;;;;16.87;54.15;98742.53;5130595;27;20549;-78
2022/05/12 00:28:08;;;;;;;2.35;1.58;;;;;;;16.98;55.26;98766.44;5130461;27;20051;-79
2022/05/12 00:30:37;;;;;;;8.52;1.90;;;;;;;16.90;59.04;98771.41;5126111;27;20413;-78
2022/05/12 00:33:04;;;;;;;5.53;2.80;;;;;;;16.94;60.05;98783.63;5126693;27;20054;-78
2022/05/12 00:35:30;;;;;;;6.38;3.42;;;;;;;16.84;57.75;98780.56;5125654;28;20049;-79
2022/05/12 00:37:57;;;;;;;2.03;1.50;;;;;;;16.79;55.89;98779.34;5122282;27;20055;-79
2022/05/12 00:40:23;;;;;;;2.55;1.60;;;;;;;16.76;56.55;98763.34;5128754;27;20050;-79
2022/05/12 00:42:58;;;;;;;2.80;1.63;;;;;;;16.81;56.58;98768.16;5129710;27;20055;-78
2022/05/12 00:45:26;;;;;;;7.07;1.77;;;;;;;16.89;57.34;98783.47;5127914;27;20039;-78
2022/05/12 00:47:54;;;;;;;2.53;1.70;;;;;;;16.93;58.59;98780.00;5133765;27;20509;-78
2022/05/12 00:50:27;;;;;;;3.70;1.70;;;;;;;16.95;59.06;98797.09;5117131;27;20051;-79
2022/05/12 00:52:54;;;;;;;11.65;2.55;;;;;;;16.70;60.46;98778.03;5124398;27;20036;-78
2022/05/12 00:55:25;;;;;;;5.90;1.67;;;;;;;16.77;61.36;98780.66;5128323;27;20364;-79
2022/05/12 00:57:55;;;;;;;1.95;1.48;;;;;;;16.61;61.51;98765.72;5152727;27;20039;-78
2022/05/12 01:00:23;;;;;;;;;;;;;;;16.80;61.14;98807.63;5147861;27;20042;-78
2022/05/12 01:02:52;;;;;;;3.90;1.92;;;;;;;16.62;63.03;98781.13;5153322;27;19926;-78
2022/05/12 01:05:20;;;;;;;3.88;1.60;;;;;;;16.64;64.82;98814.63;5146310;27;20095;-78
2022/05/12 01:07:47;;;;;;;5.45;2.13;;;;;;;16.65;65.04;98816.31;5142196;27;20044;-78
2022/05/12 01:10:15;;;;;;;3.72;1.58;;;;;;;16.49;65.75;98806.81;5147389;27;20035;-78
2022/05/12 01:12:46;;;;;;;4.53;1.83;;;;;;;16.24;66.25;98805.06;5133586;27;20059;-78
2022/05/12 01:15:14;;;;;;;5.55;1.52;;;;;;;16.26;66.99;98808.41;5126804;27;20047;-78
2022/05/12 01:17:40;;;;;;;3.05;1.70;;;;;;;16.17;69.74;98812.53;5128985;27;20450;-78
2022/05/12 01:20:08;;;;;;;3.97;2.17;;;;;;;16.30;69.91;98840.84;5123799;27;20043;-78
2022/05/12 01:22:42;;;;;;;3.03;1.80;;;;;;;16.07;71.34;98809.47;5133302;27;20069;-78
2022/05/12 01:25:12;;;;;;;2.88;2.53;;;;;;;16.27;71.51;98832.03;5127857;27;20043;-78
2022/05/12 01:27:42;;;;;;;3.03;1.95;;;;;;;16.13;71.56;98818.69;5130040;27;20490;-78
2022/05/12 01:30:10;;;;;;;5.72;2.08;;;;;;;15.89;72.36;98800.19;5133627;27;20047;-78
2022/05/12 01:32:37;;;;;;;2.63;1.80;;;;;;;15.77;72.07;98810.19;5124189;27;20057;-78
2022/05/12 01:35:04;;;;;;;5.25;1.98;;;;;;;15.52;75.64;98813.84;5133334;27;20054;-78
2022/05/12 01:37:31;;;;;;;4.32;1.88;;;;;;;15.63;74.34;98816.91;5133898;27;20046;-78
2022/05/12 01:39:58;;;;;;;4.57;1.83;;;;;;;15.50;76.00;98820.59;5128738;27;20048;-78
2022/05/12 01:42:26;;;;;;;3.38;2.00;;;;;;;15.82;75.25;98846.03;5127971;27;20054;-79
2022/05/12 01:44:52;;;;;;;4.15;1.75;;;;;;;15.69;75.40;98840.66;5123651;27;20093;-78
2022/05/12 01:47:19;;;;;;;3.33;2.05;;;;;;;15.68;74.26;98849.94;5134074;27;20126;-78
2022/05/12 01:49:47;;;;;;;2.72;1.70;;;;;;;15.61;74.68;98836.31;5133918;27;20043;-78
2022/05/12 01:52:14;;;;;;;4.03;1.83;;;;;;;15.55;74.77;98849.00;5123230;27;20059;-78
2022/05/12 01:54:41;;;;;;;2.22;1.73;;;;;;;15.72;74.35;98868.44;5133912;27;20043;-78
2022/05/12 01:57:07;;;;;;;3.05;2.03;;;;;;;15.69;73.84;98855.19;5123685;27;20485;-78
2022/05/12 01:59:35;;;;;;;4.57;2.92;;;;;;;15.51;72.64;98846.94;5119549;27;20297;-78
2022/05/12 02:02:03;;;;;;;3.88;2.20;;;;;;;15.55;72.76;98868.19;5130855;27;20062;-78
2022/05/12 02:04:29;;;;;;;3.10;2.20;;;;;;;15.32;72.56;98843.31;5127447;27;20375;-78
2022/05/12 02:06:56;;;;;;;3.85;2.40;;;;;;;15.25;71.94;98858.94;5132202;27;20043;-78
2022/05/12 02:09:23;;;;;;;3.72;1.77;;;;;;;15.17;72.68;98852.66;5130500;27;20066;-78
2022/05/12 02:11:49;;;;;;;7.28;1.85;;;;;;;15.40;72.76;98889.56;5130142;27;20039;-78
2022/05/12 02:14:16;;;;;;;7.82;2.10;;;;;;;15.34;72.73;98882.25;5126869;27;20046;-78
2022/05/12 02:16:44;;;;;;;2.58;1.80;;;;;;;15.32;75.27;98898.91;5133602;27;20078;-78
2022/05/12 02:19:11;;;;;;;6.57;2.13;;;;;;;15.34;75.08;98885.00;5122677;27;20073;-78
2022/05/12 02:21:38;;;;;;;3.05;2.03;;;;;;;15.42;73.97;98889.38;5123683;27;20051;-78
2022/05/12 02:24:05;;;;;;;3.17;1.90;;;;;;;15.33;71.94;98895.13;5129879;27;20051;-78
2022/05/12 02:26:32;;;;;;;2.95;1.90;;;;;;;15.33;73.29;98899.75;5133176;27;20422;-78
2022/05/12 02:28:59;;;;;;;2.55;1.83;;;;;;;15.36;73.73;98911.09;5124807;27;20058;-78
2022/05/12 02:31:27;;;;;;;3.65;2.10;;;;;;;15.40;72.45;98906.00;5133008;27;20035;-78
2022/05/12 02:33:54;;;;;;;3.35;1.92;;;;;;;15.34;75.02;98891.31;5132480;27;20051;-78
2022/05/12 02:36:21;;;;;;;3.60;2.15;;;;;;;15.26;74.26;98897.06;5134736;27;20043;-78
2022/05/12 02:38:48;;;;;;;3.13;2.22;;;;;;;15.40;77.62;98917.81;5126831;27;20055;-78
2022/05/12 02:41:15;;;;;;;3.80;2.75;;;;;;;15.23;80.02;98908.47;5114007;28;20066;-78
2022/05/12 02:43:42;;;;;;;2.50;2.00;;;;;;;15.41;75.39;98937.81;5119866;27;20039;-78
2022/05/12 02:46:10;;;;;;;4.22;2.30;;;;;;;15.18;76.80;98892.69;5123279;27;20051;-78
2022/05/12 02:48:39;;;;;;;4.43;2.10;;;;;;;15.43;77.71;98934.84;5132657;27;20046;-78
2022/05/12 02:51:07;;;;;;;3.45;2.20;;;;;;;15.38;79.84;98935.53;5126086;27;20530;-78
2022/05/12 02:53:35;;;;;;;3.40;1.95;;;;;;;15.34;75.69;98913.22;5122833;27;20562;-78
2022/05/12 02:56:02;;;;;;;2.33;1.92;;;;;;;15.37;76.37;98906.44;5122557;27;20051;-78
2022/05/12 02:58:29;;;;;;;3.33;2.13;;;;;;;15.35;79.56;98923.09;5131775;27;20430;-78
2022/05/12 03:00:56;;;;;;;6.28;2.25;;;;;;;15.30;77.12;98925.69;5124374;27;20054;-78
2022/05/12 03:03:24;;;;;;;2.63;2.00;;;;;;;15.50;78.53;98950.19;5134081;27;20046;-78
2022/05/12 03:05:51;;;;;;;2.53;2.00;;;;;;;15.26;80.92;98921.69;5134136;27;20047;-78
2022/05/12 03:08:19;;;;;;;3.35;2.33;;;;;;;15.26;80.95;98927.19;5120591;27;20059;-78
2022/05/12 03:10:48;;;;;;;3.35;2.13;;;;;;;15.26;82.36;98946.34;5113070;28;20047;-78
2022/05/12 03:13:16;;;;;;;30.23;5.28;;;;;;;15.34;81.43;98956.19;5125806;27;20414;-78
2022/05/12 03:15:42;;;;;;;2.70;2.25;;;;;;;15.09;82.38;98928.78;5129571;27;20051;-78
2022/05/12 03:18:09;;;;;;;3.20;2.20;;;;;;;15.18;81.29;98935.69;5133188;27;20051;-78
2022/05/12 03:20:35;;;;;;;3.83;2.10;;;;;;;15.25;84.91;98965.75;5125340;27;20079;-78
2022/05/12 03:23:02;;;;;;;3.65;2.47;;;;;;;15.09;84.18;98937.81;5121988;27;20050;-78
2022/05/12 03:25:30;;;;;;;3.65;2.28;;;;;;;15.22;87.75;98967.88;5126526;27;20047;-78
2022/05/12 03:27:57;;;;;;;2.42;2.20;;;;;;;14.99;86.28;98959.38;5130202;27;20399;-78
2022/05/12 03:30:25;;;;;;;4.15;2.67;;;;;;;15.07;88.19;98967.34;5131411;27;20070;-78
2022/05/12 03:32:52;;;;;;;2.92;2.35;;;;;;;15.01;87.19;98970.94;5130096;27;20047;-78
2022/05/12 03:35:19;;;;;;;3.13;2.63;;;;;;;14.81;92.95;98960.09;5124409;27;20039;-78
2022/05/12 03:37:46;;;;;;;8.05;2.90;;;;;;;14.83;89.85;98963.47;5128024;27;20104;-78
2022/05/12 03:40:17;;;;;;;3.58;2.60;;;;;;;14.96;90.56;98993.47;5120149;27;20068;-78
2022/05/12 03:42:45;;;;;;;3.97;2.88;;;;;;;14.94;91.30;98992.88;5123956;27;20051;-78
2022/05/12 03:45:11;;;;;;;3.22;2.25;;;;;;;14.78;90.12;98976.94;5130897;27;20046;-79
2022/05/12 03:47:39;;;;;;;5.50;2.10;;;;;;;14.85;89.69;98977.75;5132115;27;20043;-78
2022/05/12 03:50:09;;;;;;;4.00;2.58;;;;;;;14.74;89.53;98973.81;5127399;27;20058;-78
2022/05/12 03:52:37;;;;;;;5.25;2.33;;;;;;;14.83;90.99;98994.38;5131401;27;20050;-78
2022/05/12 03:55:05;;;;;;;10.02;2.92;;;;;;;14.85;90.92;98996.91;5116359;27;20055;-78
2022/05/12 03:57:31;;;;;;;5.97;2.47;;;;;;;15.01;88.26;99003.81;5122381;27;20046;-78
2022/05/12 04:00:00;;;;;;;7.22;2.03;;;;;;;14.88;87.69;98976.50;5128727;27;20039;-78
2022/05/12 04:02:26;;;;;;;4.97;2.60;;;;;;;14.98;86.92;98983.16;5130786;27;20049;-78
2022/05/12 04:04:53;;;;;;;6.75;2.20;;;;;;;15.07;85.45;98991.13;5129991;27;20497;-79
2022/05/12 04:07:21;;;;;;;3.50;2.00;;;;;;;15.27;85.88;99021.16;5131518;27;20050;-78
2022/05/12 04:09:48;;;;;;;3.28;2.38;;;;;;;15.12;86.69;98991.31;5121651;27;20471;-78
2022/05/12 04:12:16;;;;;;;4.13;2.13;;;;;;;15.07;87.43;98991.13;5130706;27;20054;-78
2022/05/12 04:14:43;;;;;;;3.65;2.15;;;;;;;15.13;89.45;99013.00;5129517;27;20050;-78
2022/05/12 04:17:15;;;;;;;2.83;1.85;;;;;;;15.25;89.00;99039.69;5131221;27;20055;-78
2022/05/12 04:19:42;;;;;;;5.97;2.80;;;;;;;15.37;88.27;99040.66;5123440;27;20465;-78
2022/05/12 04:22:09;;;;;;;7.57;2.55;;;;;;;15.41;88.65;99052.88;5134642;27;20050;-78
2022/05/12 04:24:36;;;;;;;2.78;1.88;;;;;;;15.41;88.26;99036.44;5134737;27;20041;-78
2022/05/12 04:27:03;;;;;;;2.03;1.77;;;;;;;15.47;87.77;99038.28;5132022;27;20053;-78
2022/05/12 04:29:30;;;;;;;4.78;2.00;;;;;;;15.54;87.96;99046.47;5119817;27;20304;-78
2022/05/12 04:31:56;;;;;;;3.03;1.88;;;;;;;15.57;87.04;99035.91;5132942;27;20054;-78
2022/05/12 04:37:09;;;;;;;5.32;2.50;;;;;;;15.63;86.49;99034.19;5118795;27;20509;-78
2022/05/12 04:39:37;;;;;;;3.90;1.85;;;;;;;15.64;86.67;99040.50;5127963;27;20039;-77
2022/05/12 04:42:04;;;;;;;4.43;1.63;;;;;;;15.89;86.98;99060.59;5133807;27;20047;-78
2022/05/12 04:44:30;;;;;;;6.18;2.08;;;;;;;15.81;86.62;99044.44;5129739;27;20490;-78
2022/05/12 04:46:57;;;;;;;2.80;1.98;;;;;;;16.05;86.07;99081.16;5136778;27;20059;-79
2022/05/12 04:49:26;;;;;;;5.38;2.28;;;;;;;15.96;85.39;99055.09;5115591;27;20051;-79
2022/05/12 04:51:53;;;;;;;7.82;2.17;;;;;;;16.17;85.05;99083.16;5114483;28;20054;-79
2022/05/12 04:54:21;;;;;;;2.85;1.77;;;;;;;16.10;86.03;99056.63;5111773;28;20047;-79
2022/05/12 04:56:47;;;;;;;2.28;2.03;;;;;;;16.20;87.43;99083.56;5114362;27;20248;-79
2022/05/12 04:59:14;;;;;;;4.40;1.85;;;;;;;16.23;86.46;99093.28;5114479;28;20067;-79
2022/05/12 05:01:40;;;;;;;7.88;2.40;;;;;;;16.24;86.22;99081.22;5116786;27;20127;-79
2022/05/12 05:04:07;;;;;;;3.92;1.73;;;;;;;16.24;87.20;99068.34;5133123;27;20051;-79
2022/05/12 05:06:35;;;;;;;7.22;2.28;;;;;;;16.35;88.02;99080.50;5135199;27;20051;-79
2022/05/12 05:09:02;;;;;;;8.15;2.45;;;;;;;16.25;87.96;99072.75;5134892;27;20043;-79
2022/05/12 05:11:28;;;;;;;3.45;2.00;;;;;;;16.37;87.33;99083.00;5134814;27;20051;-79
2022/05/12 05:13:55;;;;;;;3.45;2.00;;;;;;;16.81;86.60;99111.28;5133856;27;20406;-78
2022/05/12 05:16:22;;;;;;;5.35;1.88;;;;;;;17.27;83.82;99106.41;5134201;27;20047;-79
2022/05/12 05:18:49;;;;;;;7.25;1.77;;;;;;;17.64;80.80;99103.56;5133176;27;20405;-79
2022/05/12 05:21:15;;;;;;;5.43;1.90;;;;;;;17.97;78.13;99103.13;5134547;27;20057;-79
2022/05/12 05:23:43;;;;;;;3.05;1.55;;;;;;;18.29;75.16;99105.59;5133870;27;20051;-79
2022/05/12 05:26:10;;;;;;;6.47;1.70;;;;;;;18.71;74.81;99108.25;5134306;27;20054;-78
2022/05/12 05:28:37;;;;;;;3.10;1.25;;;;;;;18.91;70.95;99105.16;5134608;27;20051;-79
2022/05/12 05:31:04;;;;;;;5.18;1.55;;;;;;;18.72;71.89;99126.44;5129604;27;20058;-80
2022/05/12 05:33:31;;;;;;;7.07;4.10;;;;;;;18.42;73.22;99125.72;5126616;27;20108;-80
2022/05/12 05:35:58;;;;;;;4.70;1.90;;;;;;;18.17;76.39;99130.34;5129374;27;20372;-80
2022/05/12 05:38:24;;;;;;;9.85;2.08;;;;;;;18.39;75.10;99149.03;5134038;27;20104;-80
2022/05/12 05:40:52;;;;;;;7.72;1.35;;;;;;;18.42;74.58;99142.22;5124060;27;20039;-80
2022/05/12 05:43:19;;;;;;;3.00;1.63;;;;;;;18.12;75.75;99143.13;5118822;27;20039;-80
2022/05/12 05:45:46;;;;;;;8.10;1.65;;;;;;;18.11;77.63;99157.94;5121373;27;20097;-80
2022/05/12 05:48:13;;;;;;;2.22;1.15;;;;;;;17.92;76.62;99171.75;5116910;27;20055;-80
2022/05/12 05:53:38;;;;;;;4.53;1.40;;;;;;;17.91;79.50;99174.72;5094857;27;20054;-79
2022/05/12 05:56:11;;;;;;;3.72;1.13;;;;;;;17.85;78.56;99160.81;5128985;27;20051;-80
2022/05/12 05:58:40;;;;;;;4.03;1.35;;;;;;;17.93;78.35;99192.69;5135886;27;20054;-80
2022/05/12 06:01:06;;;;;;;2.22;0.90;;;;;;;17.96;79.63;99189.47;5116523;27;20053;-80
2022/05/12 06:03:33;;;;;;;4.43;2.20;;;;;;;17.95;79.44;99176.78;5114509;28;20414;-80
2022/05/12 06:05:59;;;;;;;4.70;1.30;;;;;;;18.02;79.64;99182.16;5128403;27;20142;-80
2022/05/12 06:08:26;;;;;;;4.20;1.50;;;;;;;18.17;78.31;99204.63;5130984;27;20073;-80
2022/05/12 06:10:53;;;;;;;3.90;1.17;;;;;;;18.28;77.07;99215.91;5125366;27;20040;-79
2022/05/12 06:13:21;;;;;;;3.28;1.30;;;;;;;18.30;76.96;99178.81;5134985;27;20043;-80
2022/05/12 06:15:49;;;;;;;2.80;1.20;;;;;;;18.54;77.67;99203.63;5132064;27;20051;-80
2022/05/12 06:18:17;;;;;;;8.55;1.75;;;;;;;18.37;77.20;99187.81;5121299;27;20070;-80
2022/05/12 06:20:44;;;;;;;1.85;1.10;;;;;;;18.71;78.40;99201.03;5114875;27;20055;-80
2022/05/12 06:23:13;;;;;;;2.03;1.13;;;;;;;18.83;77.35;99199.13;5127767;27;20039;-80
2022/05/12 06:25:40;;;;;;;5.40;1.50;;;;;;;19.15;77.34;99220.00;5133098;27;20043;-80
2022/05/12 06:28:08;;;;;;;2.53;1.02;;;;;;;19.11;76.23;99211.41;5124400;27;20040;-80
2022/05/12 06:30:36;;;;;;;2.97;1.42;;;;;;;19.33;73.76;99225.41;5130057;27;20039;-79
2022/05/12 06:33:04;;;;;;;1.35;1.10;;;;;;;19.70;69.93;99208.56;5134844;27;20062;-80
2022/05/12 06:35:33;;;;;;;4.95;1.30;;;;;;;20.07;67.08;99185.34;5134414;27;20051;-79
2022/05/12 06:38:00;;;;;;;1.88;0.80;;;;;;;20.38;69.25;99197.75;5134092;27;20076;-80
2022/05/12 06:40:28;;;;;;;2.35;1.00;;;;;;;20.04;68.43;99219.75;5114823;27;20058;-79
2022/05/12 06:42:54;;;;;;;5.00;1.70;;;;;;;19.62;68.93;99229.06;5133886;27;20066;-78
2022/05/12 06:45:22;;;;;;;4.72;1.30;;;;;;;19.42;70.36;99215.69;5126995;27;20047;-78
2022/05/12 06:47:53;;;;;;;1.55;1.20;;;;;;;19.46;72.14;99229.81;5112485;28;20047;-79
2022/05/12 06:50:25;;;;;;;2.47;1.02;;;;;;;19.35;72.47;99247.22;5112157;28;20054;-78
2022/05/12 06:52:53;;;;;;;1.77;1.08;;;;;;;19.13;73.98;99200.97;5109686;28;20056;-78
2022/05/12 06:55:20;;;;;;;3.50;1.00;;;;;;;19.13;71.73;99224.94;5112211;28;20047;-78
2022/05/12 06:57:48;;;;;;;1.13;0.95;;;;;;;19.31;70.60;99241.34;5130807;27;20055;-78
2022/05/12 07:00:16;;;;;;;2.05;1.05;;;;;;;19.16;71.65;99230.78;5124364;27;20083;-78
2022/05/12 07:02:44;;;;;;;1.58;1.10;;;;;;;19.25;73.25;99234.88;5123643;27;20044;-78
2022/05/12 07:05:13;;;;;;;2.05;0.88;;;;;;;19.20;71.97;99228.41;5132599;27;20047;-78
2022/05/12 07:07:41;;;;;;;0.98;0.70;;;;;;;19.07;71.13;99257.88;5132554;27;20047;-78
2022/05/12 07:10:10;;;;;;;3.78;0.98;;;;;;;19.09;71.78;99255.72;5132324;27;20047;-78
2022/05/12 07:12:36;;;;;;;5.93;1.05;;;;;;;19.15;74.04;99267.72;5113149;27;20109;-78
2022/05/12 07:15:03;;;;;;;4.35;1.20;;;;;;;18.96;74.35;99261.44;5111935;28;20051;-78
2022/05/12 07:17:30;;;;;;;1.20;0.98;;;;;;;18.91;73.83;99267.69;5111698;28;20509;-78
2022/05/12 07:26:35;;;;;;;5.75;1.00;;;;;;;18.92;73.13;99263.84;5122085;27;20050;-78
2022/05/12 07:28:15;;;;;;;1.65;0.85;;;;;;;19.13;73.01;99280.03;5132123;27;20090;-78
2022/05/12 07:33:40;;;;;;;3.72;0.93;;;;;;;19.40;74.10;99288.69;5047873;28;20044;-78
2022/05/12 07:36:09;;;;;;;3.40;0.80;;;;;;;19.39;72.44;99279.56;5111809;27;20491;-77
2022/05/12 07:38:37;;;;;;;1.98;0.95;;;;;;;19.54;74.67;99283.75;5126733;27;20122;-78
2022/05/12 07:41:07;;;;;;;1.88;1.20;;;;;;;19.45;71.73;99278.63;5126988;27;20062;-78
2022/05/12 07:43:33;;;;;;;8.93;1.15;;;;;;;19.33;73.74;99291.56;5111360;28;20392;-78
2022/05/12 07:46:00;;;;;;;4.88;1.10;;;;;;;19.22;75.64;99278.59;5111186;28;20055;-78
2022/05/12 07:48:27;;;;;;;9.60;1.33;;;;;;;19.18;73.14;99278.25;5111475;28;20052;-78
2022/05/12 07:50:53;;;;;;;3.55;1.00;;;;;;;18.99;73.87;99274.75;5110016;28;20054;-78
2022/05/12 07:53:20;;;;;;;2.40;0.93;;;;;;;19.19;75.14;99290.09;5112241;27;20380;-78
2022/05/12 07:55:48;;;;;;;4.65;0.90;;;;;;;19.08;73.83;99278.81;5128130;27;20112;-78
2022/05/12 07:58:16;;;;;;;4.68;1.30;;;;;;;19.35;73.48;99275.63;5131886;27;20551;-78
2022/05/12 08:00:42;;;;;;;3.10;1.30;;;;;;;19.72;70.15;99288.28;5131792;27;20502;-78
2022/05/12 08:03:09;;;;;;;5.90;0.90;;;;;;;19.99;72.34;99283.09;5130850;27;20057;-78
2022/05/12 08:05:38;;;;;;;1.38;1.02;;;;;;;20.01;70.74;99292.00;5131231;27;21422;-78
2022/05/12 08:08:06;;;;;;;2.63;0.90;;;;;;;20.27;71.55;99290.59;5131722;27;20112;-78
2022/05/12 08:10:33;;;;;;;5.72;1.10;;;;;;;20.67;67.19;99264.00;5129085;27;20039;-78
2022/05/12 08:13:01;;;;;;;3.83;1.05;;;;;;;20.57;65.30;99261.06;5130477;27;20051;-78
2022/05/12 08:15:28;;;;;;;2.92;1.02;;;;;;;20.92;64.33;99280.22;5131927;27;20387;-78
2022/05/12 08:17:56;;;;;;;3.38;1.08;;;;;;;21.08;61.78;99286.00;5131512;27;20056;-78
2022/05/12 08:20:23;;;;;;;2.80;0.90;;;;;;;20.96;62.18;99278.63;5131378;27;20047;-78
2022/05/12 08:22:51;;;;;;;3.17;1.20;;;;;;;21.10;63.27;99273.59;5130205;27;20409;-78
2022/05/12 08:25:18;;;;;;;4.55;1.05;;;;;;;20.78;63.04;99259.53;5125311;27;20042;-78
2022/05/12 08:27:45;;;;;;;2.50;0.90;;;;;;;21.09;61.97;99277.47;5131389;27;20053;-78
2022/05/12 08:30:15;;;;;;;3.22;1.25;;;;;;;21.24;63.61;99281.56;5131148;27;20454;-78
2022/05/12 08:32:42;;;;;;;;;;;;;;;21.56;61.74;99302.00;5131228;27;20039;-79
2022/05/12 08:35:09;;;;;;;3.60;0.80;;;;;;;21.55;60.55;99288.44;5131123;27;19923;-78
2022/05/12 08:37:36;;;;;;;4.28;1.00;;;;;;;21.63;59.25;99287.16;5130736;27;20047;-78
2022/05/12 08:40:03;;;;;;;4.10;1.10;;;;;;;21.53;60.70;99302.50;5131538;27;20058;-79
2022/05/12 08:42:33;;;;;;;2.78;0.75;;;;;;;21.52;58.15;99267.63;5128579;27;20039;-78
2022/05/12 08:45:02;;;;;;;2.03;0.88;;;;;;;21.55;59.73;99300.31;5130980;27;20149;-79
2022/05/12 08:47:34;;;;;;;1.65;0.90;;;;;;;21.29;60.07;99276.94;5131358;28;20056;-79
2022/05/12 08:50:02;;;;;;;1.52;0.90;;;;;;;21.84;60.17;99300.16;5131243;28;20112;-78
2022/05/12 08:52:38;;;;;;;3.70;1.10;;;;;;;22.07;60.23;99295.47;5123930;27;20478;-79
2022/05/12 08:55:18;;;;;;;3.33;1.02;;;;;;;21.56;59.69;99281.81;5131358;27;20111;-78
2022/05/12 08:57:54;;;;;;;2.47;0.93;;;;;;;22.14;61.57;99271.22;5131353;27;20051;-79
2022/05/12 09:00:21;;;;;;;7.60;1.15;;;;;;;22.14;57.22;99285.06;5128216;28;20055;-79
2022/05/12 09:02:58;;;;;;;12.00;1.15;;;;;;;21.74;60.32;99289.81;5127975;27;20050;-79
2022/05/12 09:05:29;;;;;;;1.77;1.25;;;;;;;21.23;61.04;99319.44;5131019;27;20054;-79
2022/05/12 09:08:05;;;;;;;3.28;1.00;;;;;;;21.24;60.86;99315.56;5132324;27;20055;-78
2022/05/12 09:10:45;;;;;;;3.78;1.27;;;;;;;21.15;61.99;99287.53;5134816;27;20092;-79
2022/05/12 09:13:16;;;;;;;6.78;1.27;;;;;;;21.15;62.22;99306.88;5134065;27;20066;-79
2022/05/12 09:15:49;;;;;;;2.42;1.15;;;;;;;21.00;61.54;99321.25;5135058;27;20047;-78
2022/05/12 09:18:23;;;;;;;3.20;1.27;;;;;;;20.97;62.95;99307.09;5128412;27;20043;-78
2022/05/12 09:20:49;;;;;;;2.13;1.13;;;;;;;21.61;60.14;99308.72;5132215;27;20096;-78
2022/05/12 09:23:16;;;;;;;2.80;1.42;;;;;;;21.65;60.33;99320.91;5134051;27;20057;-78
2022/05/12 09:25:45;;;;;;;9.02;1.52;;;;;;;21.48;60.72;99296.03;5134270;27;20047;-78
2022/05/12 09:28:24;;;;;;;2.38;1.40;;;;;;;21.90;59.56;99282.56;5129109;27;20044;-78
2022/05/12 09:30:51;;;;;;;4.27;2.00;;;;;;;22.58;58.60;99304.44;5131419;27;20058;-79
2022/05/12 09:33:33;;;;;;;2.60;1.50;;;;;;;22.78;58.38;99306.56;5133722;27;20756;-79
2022/05/12 09:36:02;;;;;;;4.60;1.20;;;;;;;22.55;57.49;99302.19;5132853;27;20054;-78
2022/05/12 09:38:29;;;;;;;4.27;1.13;;;;;;;22.77;58.08;99296.59;5133623;27;20062;-78
2022/05/12 09:40:56;;;;;;;2.40;1.30;;;;;;;22.80;58.03;99268.34;5130928;27;20059;-78
2022/05/12 09:43:31;;;;;;;4.43;1.20;;;;;;;22.97;57.15;99276.56;5126655;27;20063;-79
2022/05/12 09:46:07;;;;;;;3.88;1.40;;;;;;;22.62;57.16;99311.13;5134065;27;20054;-79
2022/05/12 09:48:37;;;;;;;6.13;1.23;;;;;;;22.75;56.89;99307.09;5134329;27;20061;-78
2022/05/12 09:51:21;;;;;;;5.13;1.20;;;;;;;22.49;56.73;99274.69;5131566;27;20051;-78
2022/05/12 09:53:49;;;;;;;3.35;1.50;;;;;;;22.86;55.90;99309.97;5123282;27;20047;-79
2022/05/12 09:56:28;;;;;;;4.10;1.40;;;;;;;23.00;55.23;99280.72;5134284;27;20103;-78
2022/05/12 09:59:03;;;;;;;6.50;1.58;;;;;;;23.26;55.04;99270.72;5131014;27;20054;-79
2022/05/12 10:01:30;;;;;;;2.22;1.38;;;;;;;22.72;54.87;99279.09;5133657;27;20050;-79
2022/05/12 10:09:52;;;;;;;11.10;1.50;;;;;;;22.92;55.63;99279.25;5125343;27;20050;-79
2022/05/12 10:12:32;;;;;;;1.85;1.30;;;;;;;22.93;54.91;99289.25;5133218;27;20501;-78
2022/05/12 10:15:04;;;;;;;7.28;1.48;;;;;;;22.76;53.88;99264.44;5133668;27;20051;-79
2022/05/12 10:17:35;;;;;;;6.03;1.48;;;;;;;22.70;52.66;99284.91;5133418;27;20076;-78
2022/05/12 10:20:08;;;;;;;5.20;1.63;;;;;;;22.90;53.48;99280.63;5133599;27;20479;-78
2022/05/12 10:22:43;;;;;;;11.07;2.00;;;;;;;22.92;54.20;99262.63;5131756;27;20439;-78
2022/05/12 10:25:20;;;;;;;4.55;1.50;;;;;;;23.15;55.36;99250.38;5133418;27;20058;-78
2022/05/12 10:27:54;;;;;;;4.00;1.17;;;;;;;23.10;52.74;99242.00;5133424;27;20051;-78
2022/05/12 10:30:39;;;;;;;2.53;1.25;;;;;;;23.20;53.80;99263.47;5133311;27;20497;-78
2022/05/12 10:33:23;;;;;;;3.45;1.30;;;;;;;23.37;52.11;99262.47;5132367;27;20093;-78
2022/05/12 10:36:10;;;;;;;2.90;1.65;;;;;;;23.37;51.48;99274.38;5133202;27;20043;-78
2022/05/12 10:38:44;;;;;;;2.83;1.20;;;;;;;23.62;50.74;99272.88;5119177;27;20050;-78
2022/05/12 10:41:18;;;;;;;2.00;1.45;;;;;;;23.73;51.74;99254.34;5132807;27;20498;-79
2022/05/12 10:44:14;;;;;;;4.10;1.73;;;;;;;23.79;49.21;99245.78;5132559;27;20504;-79
2022/05/12 10:46:51;;;;;;;6.68;1.40;;;;;;;23.70;51.49;99214.09;5126562;27;20047;-79
2022/05/12 10:49:22;;;;;;;2.38;1.40;;;;;;;23.71;48.61;99224.09;5132982;27;20055;-78
2022/05/12 10:52:04;;;;;;;6.10;1.88;;;;;;;23.92;50.82;99243.63;5130304;27;20410;-79
2022/05/12 10:54:38;;;;;;;2.88;1.40;;;;;;;24.06;49.62;99230.94;5131111;27;20047;-78
2022/05/12 10:57:18;;;;;;;3.17;1.50;;;;;;;23.97;49.16;99202.84;5132677;27;20043;-78
2022/05/12 11:00:03;;;;;;;2.25;1.45;;;;;;;24.40;48.72;99244.34;5132898;27;20043;-78
2022/05/12 11:02:40;;;;;;;6.13;1.80;;;;;;;24.43;48.76;99227.13;5131837;27;20067;-79
2022/05/12 11:05:15;;;;;;;1.77;1.10;;;;;;;24.29;46.39;99223.22;5123857;27;20124;-79
2022/05/12 11:07:49;;;;;;;4.40;1.60;;;;;;;24.03;46.93;99207.31;5112392;28;20055;-79
2022/05/12 11:10:25;;;;;;;4.47;1.90;;;;;;;24.66;48.02;99216.63;5112088;28;20059;-79
2022/05/12 11:12:54;;;;;;;3.05;1.50;;;;;;;24.40;45.46;99202.66;5128371;27;20039;-78
2022/05/12 11:15:25;;;;;;;3.33;1.43;;;;;;;24.85;47.22;99223.31;5133129;27;20547;-78
2022/05/12 11:17:56;;;;;;;2.15;1.20;;;;;;;24.52;46.06;99200.50;5132423;27;20073;-79
2022/05/12 11:20:27;;;;;;;5.55;1.45;;;;;;;24.68;47.35;99220.81;5131729;27;20051;-78
2022/05/12 11:23:13;;;;;;;3.65;1.40;;;;;;;24.60;46.08;99212.19;5131810;27;20054;-79
2022/05/12 11:25:54;;;;;;;2.28;1.40;;;;;;;24.34;45.88;99207.41;5128207;27;20096;-78
2022/05/12 11:31:24;;;;;;;3.13;1.42;;;;;;;24.32;46.70;99219.88;5131694;27;20180;-79
2022/05/12 11:33:54;;;;;;;2.63;1.30;;;;;;;24.64;47.89;99200.22;5118244;27;20061;-78
2022/05/12 11:36:20;;;;;;;2.90;1.13;;;;;;;24.78;47.33;99203.31;5112055;28;20134;-78
2022/05/12 11:38:53;;;;;;;1.48;1.10;;;;;;;24.98;46.81;99201.63;5111455;28;20047;-78
2022/05/12 11:41:45;;;;;;;6.70;1.50;;;;;;;24.87;45.65;99196.06;5110969;27;20096;-78
2022/05/12 11:44:39;;;;;;;5.15;1.30;;;;;;;24.81;45.95;99213.03;5122642;27;20047;-78
2022/05/12 11:47:28;;;;;;;9.18;2.70;;;;;;;25.08;46.58;99209.94;5131277;27;20062;-78
2022/05/12 11:50:06;;;;;;;5.80;1.40;;;;;;;24.78;43.71;99175.50;5132298;27;20054;-78
2022/05/12 11:52:44;;;;;;;11.73;2.42;;;;;;;24.88;50.16;99192.16;5129592;27;20051;-78
2022/05/12 11:55:25;;;;;;;4.28;1.25;;;;;;;25.23;44.16;99181.28;5132193;27;20055;-78
2022/05/12 11:58:08;;;;;;;3.80;1.40;;;;;;;24.98;45.49;99185.78;5131763;27;20131;-78
2022/05/12 12:01:01;;;;;;;2.47;1.42;;;;;;;25.23;45.63;99193.25;5130118;27;20482;-78
2022/05/12 12:03:51;;;;;;;3.28;1.50;;;;;;;25.54;45.03;99197.94;5110758;28;20040;-78
2022/05/12 12:06:40;;;;;;;3.15;1.40;;;;;;;25.71;44.88;99192.84;5111764;28;20050;-78
2022/05/12 12:09:52;;;;;;;2.55;1.50;;;;;;;25.44;43.84;99191.28;5113203;28;20102;-78